createdAt,value
2023-02-19T00:01:11.802Z,61.98
2023-02-19T00:04:20.057Z,61.32
2023-02-19T00:07:23.179Z,61.31
2023-02-19T00:10:26.098Z,61.58
2023-02-19T00:13:29.578Z,62.17
2023-02-19T00:16:33.635Z,61.69
2023-02-19T00:19:36.483Z,60.83
2023-02-19T00:22:39.666Z,61.10
2023-02-19T00:25:42.460Z,60.86
2023-02-19T00:28:47.341Z,60.40
2023-02-19T00:31:50.996Z,60.82
2023-02-19T00:34:54.256Z,60.81
2023-02-19T00:37:57.107Z,61.16
2023-02-19T00:41:00.660Z,61.17
2023-02-19T00:44:08.468Z,61.13
2023-02-19T00:47:11.447Z,61.81
2023-02-19T00:50:16.250Z,61.70
2023-02-19T00:53:19.368Z,62.38
2023-02-19T00:56:22.571Z,62.95
2023-02-19T00:59:25.643Z,62.75
2023-02-19T01:02:28.774Z,63.05
2023-02-19T01:05:31.790Z,63.08
2023-02-19T01:08:39.368Z,63.71
2023-02-19T01:11:42.377Z,63.97
2023-02-19T01:14:45.487Z,64.07
2023-02-19T01:17:48.420Z,64.39
2023-02-19T01:20:52.263Z,64.40
2023-02-19T01:23:55.999Z,64.73
2023-02-19T01:27:01.332Z,64.81
2023-02-19T01:30:04.747Z,64.81
2023-02-19T01:33:12.705Z,64.66
2023-02-19T01:36:16.220Z,64.91
2023-02-19T01:39:19.410Z,65.07
2023-02-19T01:42:22.631Z,65.10
2023-02-19T01:45:31.062Z,65.89
2023-02-19T01:48:38.424Z,65.96
2023-02-19T01:51:49.340Z,66.38
2023-02-19T01:54:55.332Z,66.93
2023-02-19T01:57:59.207Z,67.74
2023-02-19T02:01:04.662Z,67.54
2023-02-19T02:04:11.150Z,67.83
2023-02-19T02:07:33.166Z,67.73
2023-02-19T02:10:36.961Z,67.86
2023-02-19T02:13:40.604Z,67.81
2023-02-19T02:17:13.046Z,67.83
2023-02-19T02:20:16.243Z,67.74
2023-02-19T02:23:28.063Z,68.07
2023-02-19T02:26:42.154Z,67.91
2023-02-19T02:29:51.608Z,67.90
2023-02-19T02:33:00.431Z,67.44
2023-02-19T02:36:13.037Z,67.05
2023-02-19T02:39:24.479Z,66.87
2023-02-19T02:42:27.568Z,66.36
2023-02-19T02:45:39.953Z,65.82
2023-02-19T02:49:05.401Z,65.08
2023-02-19T02:52:31.087Z,65.29
2023-02-19T02:55:38.114Z,64.94
2023-02-19T02:58:43.323Z,64.99
2023-02-19T03:02:14.271Z,64.68
2023-02-19T03:05:41.520Z,65.02
2023-02-19T03:09:00.341Z,64.29
2023-02-19T03:12:24.313Z,64.35
2023-02-19T03:15:52.602Z,64.49
2023-02-19T03:19:18.160Z,65.10
2023-02-19T03:22:30.210Z,64.77
2023-02-19T03:25:56.800Z,65.10
2023-02-19T03:29:26.603Z,65.21
2023-02-19T03:33:03.034Z,65.71
2023-02-19T03:36:10.481Z,65.87
2023-02-19T03:39:17.753Z,66.41
2023-02-19T03:42:26.082Z,66.60
2023-02-19T03:45:38.801Z,66.70
2023-02-19T03:48:53.400Z,66.43
2023-02-19T03:52:11.446Z,65.70
2023-02-19T03:55:27.256Z,65.52
2023-02-19T03:58:40.380Z,65.17
2023-02-19T04:02:00.905Z,65.73
2023-02-19T04:05:11.637Z,66.40
2023-02-19T04:08:19.363Z,67.23
2023-02-19T04:11:30.630Z,67.96
2023-02-19T04:14:47.498Z,67.24
2023-02-19T04:18:22.795Z,67.73
2023-02-19T04:21:29.510Z,67.74
2023-02-19T04:24:38.917Z,68.25
2023-02-19T04:27:45.054Z,69.02
2023-02-19T04:30:48.282Z,68.95
2023-02-19T04:33:51.257Z,68.68
2023-02-19T04:36:54.262Z,68.50
2023-02-19T04:39:57.089Z,68.58
2023-02-19T04:43:00.433Z,68.35
2023-02-19T04:46:03.718Z,68.49
2023-02-19T04:49:06.748Z,68.85
2023-02-19T04:52:10.190Z,68.64
2023-02-19T04:55:13.099Z,68.20
2023-02-19T04:58:15.951Z,67.53
2023-02-19T05:01:19.062Z,67.34
2023-02-19T05:04:22.089Z,67.12
2023-02-19T05:07:25.055Z,67.38
2023-02-19T05:10:27.991Z,68.06
2023-02-19T05:13:31.782Z,67.96
2023-02-19T05:16:35.053Z,67.30
2023-02-19T05:19:38.011Z,66.69
2023-02-19T05:22:41.023Z,67.20
2023-02-19T05:25:44.061Z,66.84
2023-02-19T05:28:49.649Z,66.60
2023-02-19T05:31:52.698Z,66.15
2023-02-19T05:34:55.702Z,66.30
2023-02-19T05:38:00.738Z,65.97
2023-02-19T05:41:08.883Z,65.52
2023-02-19T05:44:11.912Z,65.85
2023-02-19T05:47:14.841Z,65.44
2023-02-19T05:50:18.773Z,66.57
2023-02-19T05:53:21.631Z,66.17
2023-02-19T05:56:33.780Z,66.08
2023-02-19T05:59:36.686Z,66.34
2023-02-19T06:02:39.721Z,65.71
2023-02-19T06:05:42.713Z,65.71
2023-02-19T06:08:46.083Z,65.83
2023-02-19T06:11:49.177Z,65.79
2023-02-19T06:14:52.239Z,66.26
2023-02-19T06:17:55.261Z,66.57
2023-02-19T06:21:06.175Z,67.53
2023-02-19T06:24:10.061Z,66.56
2023-02-19T06:27:13.045Z,66.27
2023-02-19T06:30:16.037Z,66.28
2023-02-19T06:33:19.609Z,66.31
2023-02-19T06:36:23.564Z,67.01
2023-02-19T06:39:26.814Z,67.19
2023-02-19T06:42:33.156Z,66.84
2023-02-19T06:45:36.081Z,66.12
2023-02-19T06:48:40.497Z,65.39
2023-02-19T06:51:43.548Z,68.13
2023-02-19T06:54:46.428Z,66.20
2023-02-19T06:57:49.381Z,65.82
2023-02-19T07:00:54.071Z,66.38
2023-02-19T07:03:57.381Z,66.87
2023-02-19T07:07:00.381Z,66.45
2023-02-19T07:10:04.119Z,69.49
2023-02-19T07:13:08.362Z,66.63
2023-02-19T07:16:12.513Z,67.36
2023-02-19T07:19:16.041Z,65.46
2023-02-19T07:22:19.079Z,65.23
2023-02-19T07:25:24.500Z,64.88
2023-02-19T07:28:27.701Z,65.71
2023-02-19T07:31:31.091Z,66.52
2023-02-19T07:34:34.234Z,65.88
2023-02-19T07:37:37.177Z,67.18
2023-02-19T07:40:40.130Z,65.87
2023-02-19T07:43:43.249Z,65.50
2023-02-19T07:46:46.115Z,65.39
2023-02-19T07:49:49.095Z,64.79
2023-02-19T07:52:52.492Z,66.33
2023-02-19T07:56:03.982Z,65.80
2023-02-19T07:59:06.921Z,64.61
2023-02-19T08:02:37.069Z,65.93
2023-02-19T08:05:42.951Z,66.65
2023-02-19T08:08:45.937Z,66.00
2023-02-19T08:12:10.815Z,65.46
2023-02-19T08:15:13.672Z,66.06
2023-02-19T08:18:18.545Z,65.13
2023-02-19T08:21:21.541Z,64.55
2023-02-19T08:24:25.061Z,65.17
2023-02-19T08:27:28.053Z,63.39
2023-02-19T08:30:33.044Z,63.99
2023-02-19T08:33:36.730Z,63.99
2023-02-19T08:36:39.628Z,62.60
2023-02-19T08:39:42.624Z,63.75
2023-02-19T08:42:46.189Z,63.50
2023-02-19T08:45:53.617Z,62.85
2023-02-19T08:48:56.615Z,62.66
2023-02-19T08:51:59.505Z,62.92
2023-02-19T08:55:04.124Z,63.34
2023-02-19T08:58:07.151Z,63.07
2023-02-19T09:01:16.675Z,63.60
2023-02-19T09:04:19.556Z,64.11
2023-02-19T09:07:23.183Z,63.06
2023-02-19T09:10:27.934Z,62.22
2023-02-19T09:13:31.496Z,61.40
2023-02-19T09:16:35.715Z,62.72
2023-02-19T09:19:41.314Z,61.19
2023-02-19T09:22:44.177Z,62.20
2023-02-19T09:25:47.971Z,61.61
2023-02-19T09:28:50.954Z,62.86
2023-02-19T09:32:01.343Z,62.96
2023-02-19T09:35:04.448Z,64.06
2023-02-19T09:38:07.445Z,63.66
2023-02-19T09:41:25.075Z,63.34
2023-02-19T09:44:32.645Z,62.89
2023-02-19T09:47:35.870Z,62.81
2023-02-19T09:50:42.810Z,62.93
2023-02-19T09:53:50.892Z,61.92
2023-02-19T09:57:00.078Z,62.04
2023-02-19T10:00:23.896Z,61.53
2023-02-19T10:03:41.365Z,61.80
2023-02-19T10:06:44.664Z,60.85
2023-02-19T10:09:53.619Z,60.78
2023-02-19T10:13:10.091Z,60.54
2023-02-19T10:16:17.689Z,59.89
2023-02-19T10:19:20.629Z,59.21
2023-02-19T10:22:24.500Z,58.58
2023-02-19T10:25:27.824Z,56.82
2023-02-19T10:28:34.248Z,56.64
2023-02-19T10:31:38.093Z,56.03
2023-02-19T10:34:41.127Z,54.35
2023-02-19T10:37:47.333Z,53.77
2023-02-19T10:40:59.155Z,51.98
2023-02-19T10:44:14.356Z,51.16
2023-02-19T10:47:21.435Z,48.71
2023-02-19T10:50:31.063Z,49.01
2023-02-19T10:53:47.722Z,50.64
2023-02-19T10:56:50.571Z,49.25
2023-02-19T11:00:01.239Z,50.10
2023-02-19T11:03:21.200Z,50.36
2023-02-19T11:06:27.117Z,49.83
2023-02-19T11:10:00.386Z,49.38
2023-02-19T11:13:06.206Z,50.51
2023-02-19T11:16:09.376Z,51.93
2023-02-19T11:19:36.442Z,51.37
2023-02-19T11:22:47.040Z,51.57
2023-02-19T11:25:53.092Z,51.04
2023-02-19T11:29:01.520Z,51.13
2023-02-19T11:32:24.964Z,49.49
2023-02-19T11:35:29.085Z,49.37
2023-02-19T11:38:32.354Z,48.54
2023-02-19T11:41:41.592Z,49.28
2023-02-19T11:45:20.207Z,49.84
2023-02-19T11:48:32.569Z,49.56
2023-02-19T11:51:41.440Z,49.01
2023-02-19T11:55:07.633Z,48.92
2023-02-19T11:58:41.491Z,47.88
2023-02-19T12:02:12.271Z,47.84
2023-02-19T12:05:34.009Z,49.10
2023-02-19T12:09:16.526Z,48.10
2023-02-19T12:12:34.774Z,47.93
2023-02-19T12:16:05.319Z,47.15
2023-02-19T12:19:50.979Z,45.80
2023-02-19T12:23:22.013Z,43.76
2023-02-19T12:26:32.898Z,43.79
2023-02-19T12:29:59.388Z,45.28
2023-02-19T12:33:11.869Z,45.51
2023-02-19T12:36:27.699Z,46.54
2023-02-19T12:39:51.987Z,46.96
2023-02-19T12:43:14.143Z,47.14
2023-02-19T12:46:24.811Z,46.85
2023-02-19T12:49:37.205Z,47.41
2023-02-19T12:52:46.731Z,47.74
2023-02-19T12:55:50.945Z,51.38
2023-02-19T12:59:36.796Z,52.40
2023-02-19T13:02:54.301Z,51.44
2023-02-19T13:06:25.185Z,51.01
2023-02-19T13:09:43.027Z,47.82
2023-02-19T13:12:49.916Z,47.49
2023-02-19T13:15:58.971Z,46.65
2023-02-19T13:19:04.801Z,47.46
2023-02-19T13:22:41.197Z,49.62
2023-02-19T13:25:59.493Z,50.13
2023-02-19T13:29:05.450Z,51.14
2023-02-19T13:32:23.721Z,51.30
2023-02-19T13:35:42.013Z,51.08
2023-02-19T13:38:48.118Z,50.56
2023-02-19T13:41:56.914Z,50.42
2023-02-19T13:45:03.537Z,51.23
2023-02-19T13:48:33.214Z,50.55
2023-02-19T13:51:39.507Z,50.24
2023-02-19T13:54:48.944Z,50.20
2023-02-19T13:57:53.760Z,49.18
2023-02-19T14:01:14.661Z,48.08
2023-02-19T14:04:43.721Z,46.33
2023-02-19T14:07:51.224Z,45.35
2023-02-19T14:11:02.655Z,43.76
2023-02-19T14:14:33.940Z,44.45
2023-02-19T14:17:39.084Z,42.68
2023-02-19T14:20:45.428Z,40.54
2023-02-19T14:23:58.450Z,40.03
2023-02-19T14:27:02.568Z,40.39
2023-02-19T14:30:11.895Z,40.97
2023-02-19T14:33:18.915Z,41.00
2023-02-19T14:36:49.137Z,40.96
2023-02-19T14:39:54.688Z,40.80
2023-02-19T14:43:01.125Z,41.10
2023-02-19T14:46:35.001Z,41.69
2023-02-19T14:49:48.215Z,41.29
2023-02-19T14:52:56.725Z,41.11
2023-02-19T14:56:00.339Z,41.73
2023-02-19T14:59:08.824Z,41.48
2023-02-19T15:02:17.893Z,42.40
2023-02-19T15:05:26.337Z,41.27
2023-02-19T15:08:35.133Z,41.47
2023-02-19T15:11:43.450Z,42.26
2023-02-19T15:14:48.850Z,41.99
2023-02-19T15:17:54.423Z,42.41
2023-02-19T15:21:03.120Z,41.99
2023-02-19T15:24:07.229Z,43.25
2023-02-19T15:27:18.519Z,43.59
2023-02-19T15:30:29.496Z,43.58
2023-02-19T15:33:32.728Z,44.17
2023-02-19T15:36:35.673Z,43.80
2023-02-19T15:39:44.077Z,43.78
2023-02-19T15:42:47.919Z,43.34
2023-02-19T15:45:54.524Z,43.85
2023-02-19T15:49:08.292Z,44.59
2023-02-19T15:52:19.189Z,43.94
2023-02-19T15:55:26.169Z,44.02
2023-02-19T15:58:45.738Z,43.84
2023-02-19T16:01:49.504Z,44.68
2023-02-19T16:04:52.646Z,44.90
2023-02-19T16:08:17.749Z,46.02
2023-02-19T16:11:23.599Z,46.02
2023-02-19T16:14:32.327Z,46.74
2023-02-19T16:17:35.476Z,47.49
2023-02-19T16:20:38.702Z,47.58
2023-02-19T16:23:43.936Z,48.01
2023-02-19T16:26:48.363Z,47.43
2023-02-19T16:29:52.374Z,48.42
2023-02-19T16:33:49.979Z,47.06
2023-02-19T16:36:53.131Z,47.86
2023-02-19T16:40:08.672Z,47.39
2023-02-19T16:43:15.257Z,47.47
2023-02-19T16:46:18.544Z,47.14
2023-02-19T16:49:25.151Z,47.31
2023-02-19T16:52:28.702Z,47.37
2023-02-19T16:55:34.888Z,47.41
2023-02-19T16:58:39.930Z,48.10
2023-02-19T17:01:43.572Z,48.71
2023-02-19T17:04:48.568Z,48.80
2023-02-19T17:07:52.185Z,50.32
2023-02-19T17:10:56.227Z,50.21
2023-02-19T17:13:59.690Z,51.49
2023-02-19T17:17:04.031Z,51.12
2023-02-19T17:20:16.373Z,51.60
2023-02-19T17:23:24.486Z,52.38
2023-02-19T17:26:32.611Z,52.91
2023-02-19T17:29:37.301Z,53.59
2023-02-19T17:32:40.662Z,54.04
2023-02-19T17:35:44.909Z,54.68
2023-02-19T17:38:50.621Z,55.66
2023-02-19T17:41:53.754Z,56.42
2023-02-19T17:45:00.165Z,57.99
2023-02-19T17:48:03.343Z,59.42
2023-02-19T17:51:06.790Z,60.77
2023-02-19T17:54:10.110Z,61.70
2023-02-19T17:57:13.246Z,63.28
2023-02-19T18:00:20.137Z,64.48
2023-02-19T18:03:27.326Z,66.32
2023-02-19T18:06:31.260Z,67.60
2023-02-19T18:09:35.137Z,69.76
2023-02-19T18:12:39.573Z,71.45
2023-02-19T18:15:42.783Z,72.52
2023-02-19T18:18:45.968Z,72.33
2023-02-19T18:21:49.435Z,72.12
2023-02-19T18:24:53.755Z,72.12
2023-02-19T18:27:58.786Z,72.27
2023-02-19T18:31:02.846Z,71.53
2023-02-19T18:34:06.281Z,72.04
2023-02-19T18:37:09.806Z,73.36
2023-02-19T18:40:16.829Z,73.63
2023-02-19T18:43:20.092Z,74.13
2023-02-19T18:46:24.894Z,73.98
2023-02-19T18:49:36.924Z,72.58
2023-02-19T18:52:40.023Z,71.12
2023-02-19T18:55:43.477Z,70.69
2023-02-19T18:58:48.225Z,70.57
2023-02-19T19:01:53.207Z,70.41
2023-02-19T19:04:57.239Z,70.17
2023-02-19T19:08:01.979Z,69.29
2023-02-19T19:11:09.130Z,69.43
2023-02-19T19:14:12.599Z,69.08
2023-02-19T19:17:16.963Z,69.31
2023-02-19T19:20:23.303Z,68.85
2023-02-19T19:23:29.551Z,70.21
2023-02-19T19:26:33.588Z,69.95
2023-02-19T19:29:36.886Z,70.02
2023-02-19T19:32:41.148Z,70.31
2023-02-19T19:35:44.413Z,71.01
2023-02-19T19:38:48.053Z,71.08
2023-02-19T19:41:56.791Z,70.96
2023-02-19T19:45:00.143Z,70.31
2023-02-19T19:48:03.313Z,70.00
2023-02-19T19:51:08.100Z,70.49
2023-02-19T19:54:12.164Z,70.09
2023-02-19T19:57:16.140Z,69.22
2023-02-19T20:00:23.532Z,69.44
2023-02-19T20:03:27.268Z,69.09
2023-02-19T20:06:32.024Z,68.89
2023-02-19T20:09:35.435Z,68.77
2023-02-19T20:12:41.033Z,69.78
2023-02-19T20:15:44.236Z,69.19
2023-02-19T20:18:50.722Z,68.97
2023-02-19T20:21:54.658Z,68.63
2023-02-19T20:24:58.145Z,69.14
2023-02-19T20:28:01.555Z,69.19
2023-02-19T20:31:05.133Z,68.88
2023-02-19T20:34:08.411Z,69.29
2023-02-19T20:37:11.656Z,69.15
2023-02-19T20:40:17.696Z,69.78
2023-02-19T20:43:20.878Z,69.90
2023-02-19T20:46:24.008Z,68.96
2023-02-19T20:49:30.272Z,69.58
2023-02-19T20:52:33.526Z,68.20
2023-02-19T20:55:39.159Z,67.54
2023-02-19T20:58:43.453Z,67.24
2023-02-19T21:01:47.147Z,67.09
2023-02-19T21:04:51.759Z,67.45
2023-02-19T21:07:54.984Z,66.95
2023-02-19T21:10:58.113Z,67.54
2023-02-19T21:14:01.674Z,67.15
2023-02-19T21:17:05.621Z,67.31
2023-02-19T21:20:09.492Z,67.31
2023-02-19T21:23:14.022Z,67.08
2023-02-19T21:26:17.220Z,66.84
2023-02-19T21:29:22.760Z,67.09
2023-02-19T21:32:26.946Z,65.97
2023-02-19T21:35:30.319Z,66.00
2023-02-19T21:38:34.489Z,65.09
2023-02-19T21:41:37.793Z,65.84
2023-02-19T21:44:42.992Z,65.52
2023-02-19T21:47:46.141Z,64.79
2023-02-19T21:50:49.318Z,62.37
2023-02-19T21:53:52.615Z,62.49
2023-02-19T21:56:56.990Z,61.84
2023-02-19T22:00:00.069Z,61.83
2023-02-19T22:03:04.240Z,61.60
2023-02-19T22:06:08.370Z,60.60
2023-02-19T22:09:13.429Z,60.70
2023-02-19T22:12:17.331Z,60.38
2023-02-19T22:15:20.386Z,60.59
2023-02-19T22:18:23.969Z,60.50
2023-02-19T22:21:32.499Z,60.32
2023-02-19T22:24:35.708Z,59.42
2023-02-19T22:27:38.636Z,59.56
2023-02-19T22:30:42.970Z,59.84
2023-02-19T22:33:46.284Z,59.85
2023-02-19T22:36:49.380Z,59.59
2023-02-19T22:39:52.357Z,60.02
2023-02-19T22:42:55.326Z,59.29
2023-02-19T22:46:00.695Z,59.55
2023-02-19T22:49:05.747Z,59.27
2023-02-19T22:52:10.108Z,58.84
2023-02-19T22:55:13.071Z,58.65
2023-02-19T22:58:15.983Z,59.23
2023-02-19T23:01:20.033Z,58.73
2023-02-19T23:04:25.284Z,58.90
2023-02-19T23:07:28.143Z,58.72
2023-02-19T23:10:31.203Z,59.24
2023-02-19T23:13:34.126Z,58.22
2023-02-19T23:16:39.491Z,58.15
2023-02-19T23:19:43.369Z,57.76
2023-02-19T23:22:46.414Z,58.17
2023-02-19T23:25:49.612Z,58.08
2023-02-19T23:28:52.695Z,57.43
2023-02-19T23:31:57.091Z,58.08
2023-02-19T23:35:00.128Z,57.83
2023-02-19T23:38:03.150Z,57.40
2023-02-19T23:41:10.952Z,56.55
2023-02-19T23:44:13.905Z,55.27
2023-02-19T23:47:16.915Z,54.93
2023-02-19T23:50:20.536Z,54.76
2023-02-19T23:53:23.795Z,54.64
2023-02-19T23:56:28.779Z,54.69
2023-02-19T23:59:31.850Z,54.66
